This is the latest recevied weather packets stored in our database for station/object E27IHO-13. If no packets are shown the sender has not sent any weather packets the latest 10 day(s).
| Time | Temp. | Humidity | Pressure | Rain* | Wind** | Luminosity | Snow |
|---|---|---|---|---|---|---|---|
| 1777904029 | 28.33° C | 75% | 1011 hPa | - | - | 0 W/m² | - |
| 1777903706 | 28.33° C | 76% | 1011 hPa | - | - | 0 W/m² | - |
| 1777885042 | 29.44° C | 66% | 1008 hPa | - | - | 0 W/m² | - |
| 1777884720 | 29.44° C | 65% | 1007 hPa | - | - | 0 W/m² | - |
| 1777884398 | 29.44° C | 67% | 1007 hPa | - | - | 0 W/m² | - |
| 1777884076 | 28.89° C | 68% | 1007 hPa | - | - | 0 W/m² | - |
| 1777883754 | 29.44° C | 67% | 1008 hPa | - | - | 0 W/m² | - |
| 1777883432 | 29.44° C | 69% | 1008 hPa | - | - | 0 W/m² | - |
| 1777883110 | 29.44° C | 70% | 1008 hPa | - | - | 0 W/m² | - |
| 1777882788 | 29.44° C | 72% | 1008 hPa | - | - | 0 W/m² | - |
| 1777882466 | 28.89° C | 73% | 1008 hPa | - | - | 0 W/m² | - |
| 1777789028 | 37.22° C | 46% | 1008 hPa | - | - | 0 W/m² | - |
| 1777788706 | 37.78° C | 46% | 1008 hPa | - | - | 0 W/m² | - |
| 1777772308 | 33.89° C | 59% | 1011 hPa | - | - | 0 W/m² | - |
| 1777771986 | 34.44° C | 59% | 1011 hPa | - | - | 0 W/m² | - |
| 1777771664 | 33.33° C | 62% | 1011 hPa | - | - | 0 W/m² | - |
| 1777753798 | 30° C | 74% | 1008 hPa | - | - | 0 W/m² | - |
| 1777753476 | 30° C | 74% | 1008 hPa | - | - | 0 W/m² | - |
| 1777753154 | 30° C | 74% | 1008 hPa | - | - | 0 W/m² | - |
| 1777752832 | 30° C | 74% | 1008 hPa | - | - | 0 W/m² | - |
| 1777752510 | 30° C | 74% | 1008 hPa | - | - | 0 W/m² | - |
| 1777752188 | 30° C | 73% | 1008 hPa | - | - | 0 W/m² | - |
| 1777751866 | 30° C | 73% | 1008 hPa | - | - | 0 W/m² | - |
| 1777726697 | 33.33° C | 58% | 1007 hPa | - | - | 0 W/m² | - |
| 1777724744 | 33.33° C | 57% | 1007 hPa | - | - | 0 W/m² | - |
* Rain since midnight (hover to see other rain measurements)
** Current wind speed in m/s (hover to see current wind gust speed)